createdAt,value
2019-02-14T00:01:09.673Z,1.6
2019-02-14T00:06:05.833Z,1.8
2019-02-14T00:11:01.979Z,1.8
2019-02-14T00:15:58.312Z,1.7
2019-02-14T00:20:54.474Z,1.7
2019-02-14T00:25:50.886Z,1.7
2019-02-14T00:30:46.882Z,1.6
2019-02-14T00:35:43.269Z,1.6
2019-02-14T00:40:39.762Z,1.6
2019-02-14T00:45:36.042Z,1.5
2019-02-14T00:50:32.275Z,1.5
2019-02-14T00:55:28.558Z,1.5
2019-02-14T01:00:24.372Z,1.4
2019-02-14T01:05:20.666Z,1.4
2019-02-14T01:10:16.809Z,1.4
2019-02-14T01:15:13.129Z,1.3
2019-02-14T01:20:08.854Z,1.3
2019-02-14T01:25:05.097Z,1.3
2019-02-14T01:30:01.005Z,1.2
2019-02-14T01:34:57.350Z,1.1
2019-02-14T01:39:53.604Z,1.2
2019-02-14T01:44:49.795Z,1.1
2019-02-14T01:49:46.087Z,1
2019-02-14T01:54:42.393Z,0.9
2019-02-14T01:59:38.052Z,0.9
2019-02-14T02:04:34.407Z,0.8
2019-02-14T02:09:30.490Z,0.8
2019-02-14T02:14:26.742Z,0.8
2019-02-14T02:19:22.589Z,0.2
2019-02-14T02:24:18.083Z,0.8
2019-02-14T02:29:14.248Z,0.2
2019-02-14T02:34:10.479Z,0.7
2019-02-14T02:39:06.327Z,0.8
2019-02-14T02:44:02.479Z,0.7
2019-02-14T02:48:58.505Z,0.7
2019-02-14T02:53:54.892Z,0.7
2019-02-14T02:58:50.901Z,0.7
2019-02-14T03:03:47.263Z,0.8
2019-02-14T03:08:43.696Z,0.7
2019-02-14T03:13:39.930Z,0.7
2019-02-14T03:18:35.771Z,0.7
2019-02-14T03:23:32.140Z,0.5
2019-02-14T03:28:28.321Z,0
2019-02-14T03:33:24.522Z,0.7
2019-02-14T03:38:20.353Z,0.6
2019-02-14T03:43:16.751Z,0.6
2019-02-14T03:48:12.628Z,0.6
2019-02-14T03:53:08.840Z,0.6
2019-02-14T03:58:04.958Z,0.6
2019-02-14T04:03:01.182Z,0.6
2019-02-14T04:07:57.250Z,0.6
2019-02-14T04:12:53.595Z,0.6
2019-02-14T04:17:49.972Z,0.7
2019-02-14T04:22:46.259Z,0.6
2019-02-14T04:27:42.155Z,0.6
2019-02-14T04:32:38.628Z,0.6
2019-02-14T04:37:34.912Z,0.7
2019-02-14T04:42:30.997Z,0.6
2019-02-14T04:47:27.381Z,0.6
2019-02-14T04:52:23.722Z,0.6
2019-02-14T04:57:19.892Z,0.7
2019-02-14T05:02:16.006Z,0.7
2019-02-14T05:07:11.921Z,0.7
2019-02-14T05:12:08.117Z,0.7
2019-02-14T05:17:04.225Z,0.8
2019-02-14T05:22:00.360Z,0.9
2019-02-14T05:26:56.852Z,0.9
2019-02-14T05:31:53.011Z,0.9
2019-02-14T05:36:52.805Z,0.9
2019-02-14T05:41:44.949Z,1
2019-02-14T05:46:40.707Z,1
2019-02-14T05:51:37.180Z,1
2019-02-14T05:56:33.300Z,1
2019-02-14T06:01:29.097Z,0.6
2019-02-14T06:06:24.900Z,1.1
2019-02-14T06:11:21.011Z,1
2019-02-14T06:16:16.807Z,1
2019-02-14T06:21:13.759Z,0.6
2019-02-14T06:26:09.483Z,0.9
2019-02-14T06:31:04.562Z,0.7
2019-02-14T06:36:00.706Z,0.9
2019-02-14T06:40:56.863Z,1
2019-02-14T06:45:52.842Z,0.9
2019-02-14T06:50:49.057Z,0.9
2019-02-14T06:55:44.976Z,1
2019-02-14T07:00:38.055Z,1
2019-02-14T07:05:34.134Z,1.1
2019-02-14T07:10:30.332Z,1.2
2019-02-14T07:15:26.421Z,1.2
2019-02-14T07:20:22.731Z,1.2
2019-02-14T07:25:18.682Z,1.2
2019-02-14T07:30:14.804Z,1.3
2019-02-14T07:35:10.702Z,1.2
2019-02-14T07:40:07.132Z,0.9
2019-02-14T07:45:03.078Z,1.3
2019-02-14T07:49:59.463Z,1.4
2019-02-14T07:54:55.863Z,1.4
2019-02-14T07:59:52.518Z,1.5
2019-02-14T08:04:48.765Z,1.6
2019-02-14T08:09:45.745Z,1.6
2019-02-14T08:14:41.707Z,1.7
2019-02-14T08:19:37.640Z,1.8
2019-02-14T08:24:33.989Z,1.8
2019-02-14T08:29:30.154Z,1.9
2019-02-14T08:34:26.430Z,2
2019-02-14T08:39:22.974Z,2.1
2019-02-14T08:44:19.136Z,2.2
2019-02-14T08:49:15.709Z,2.3
2019-02-14T08:54:09.496Z,2.4
2019-02-14T08:59:05.238Z,2.5
2019-02-14T09:04:01.695Z,2.6
2019-02-14T09:08:58.027Z,2.7
2019-02-14T09:13:53.701Z,2.8
2019-02-14T09:23:46.119Z,3.1
2019-02-14T09:28:42.534Z,3.1
2019-02-14T09:33:38.861Z,3.1
2019-02-14T09:38:35.257Z,3.4
2019-02-14T09:43:31.784Z,3.5
2019-02-14T09:48:28.301Z,3.6
2019-02-14T09:53:24.671Z,3.7
2019-02-14T09:58:22.577Z,3.8
2019-02-14T10:03:16.732Z,4
2019-02-14T10:08:13.293Z,4.2
2019-02-14T10:13:09.582Z,4.5
2019-02-14T10:18:05.880Z,4.8
2019-02-14T10:23:02.269Z,5
2019-02-14T10:27:58.889Z,5.3
2019-02-14T10:32:55.167Z,5.5
2019-02-14T10:37:51.767Z,5.6
2019-02-14T10:42:48.077Z,5.7
2019-02-14T10:47:44.760Z,5.8
2019-02-14T10:52:40.753Z,5.9
2019-02-14T10:57:37.150Z,6
2019-02-14T11:02:33.024Z,6.1
2019-02-14T11:07:29.606Z,6.2
2019-02-14T11:12:25.951Z,6.2
2019-02-14T11:17:22.432Z,6.2
2019-02-14T11:22:18.743Z,6.3
2019-02-14T11:27:14.910Z,6.4
2019-02-14T11:32:11.415Z,6.4
2019-02-14T11:37:07.939Z,6.5
2019-02-14T11:42:04.208Z,6.5
2019-02-14T11:47:00.750Z,6.5
2019-02-14T11:51:56.851Z,6.4
2019-02-14T11:56:53.189Z,6.7
2019-02-14T12:01:55.112Z,6.9
2019-02-14T12:06:45.390Z,7
2019-02-14T12:11:41.671Z,7.2
2019-02-14T12:16:38.206Z,7.4
2019-02-14T12:21:34.336Z,7.5
2019-02-14T12:26:30.709Z,7.3
2019-02-14T12:31:26.917Z,7
2019-02-14T12:36:23.327Z,6.8
2019-02-14T12:41:19.570Z,6.7
2019-02-14T12:46:15.951Z,6.7
2019-02-14T12:51:12.502Z,6.7
2019-02-14T12:56:08.888Z,6.6
2019-02-14T13:01:04.933Z,6.6
2019-02-14T13:06:01.342Z,6.4
2019-02-14T13:10:57.403Z,6.3
2019-02-14T13:15:53.930Z,6.2
2019-02-14T13:20:50.276Z,6.2
2019-02-14T13:25:46.083Z,6.1
2019-02-14T13:30:42.051Z,6.1
2019-02-14T13:35:38.438Z,6
2019-02-14T13:40:35.031Z,5.9
2019-02-14T13:45:31.449Z,5.8
2019-02-14T13:50:27.779Z,5.7
2019-02-14T14:00:19.991Z,5.5
2019-02-14T14:05:16.402Z,5.5
2019-02-14T14:10:12.420Z,5.4
2019-02-14T14:15:08.329Z,5.3
2019-02-14T14:20:04.444Z,5.3
2019-02-14T14:25:00.798Z,5.2
2019-02-14T14:29:58.740Z,5.2
2019-02-14T14:34:52.850Z,5.2
2019-02-14T14:39:49.115Z,5.1
2019-02-14T14:44:45.170Z,4.8
2019-02-14T14:49:41.273Z,5
2019-02-14T14:54:37.701Z,4.9
2019-02-14T14:59:33.975Z,4.9
2019-02-14T15:04:30.149Z,4.8
2019-02-14T15:09:26.402Z,4.8
2019-02-14T15:14:22.833Z,4.8
2019-02-14T15:19:18.952Z,4.8
2019-02-14T15:24:15.047Z,4.8
2019-02-14T15:29:11.309Z,4.8
2019-02-14T15:34:07.512Z,4.7
2019-02-14T15:39:03.778Z,4.7
2019-02-14T15:44:00.103Z,4.6
2019-02-14T15:48:56.404Z,4.6
2019-02-14T15:53:52.037Z,4.6
2019-02-14T15:58:48.290Z,4.6
2019-02-14T16:03:44.865Z,4.6
2019-02-14T16:08:40.972Z,4.6
2019-02-14T16:13:37.676Z,4.4
2019-02-14T16:18:33.936Z,4.6
2019-02-14T16:23:31.905Z,4.6
2019-02-14T16:28:26.907Z,4.6
2019-02-14T16:33:23.594Z,4.6
2019-02-14T16:38:19.329Z,4.6
2019-02-14T16:43:15.809Z,4.6
2019-02-14T16:48:11.445Z,4.6
2019-02-14T16:53:07.654Z,4.5
2019-02-14T16:58:04.076Z,4.5
2019-02-14T17:03:00.131Z,4.5
2019-02-14T17:07:56.408Z,4.4
2019-02-14T17:12:52.563Z,3.8
2019-02-14T17:17:48.820Z,4.3
2019-02-14T17:22:44.699Z,4.3
2019-02-14T17:27:40.955Z,4.2
2019-02-14T17:32:36.913Z,3.6
2019-02-14T17:37:33.199Z,4.1
2019-02-14T17:42:29.691Z,4.1
2019-02-14T17:47:25.724Z,4.1
2019-02-14T17:52:21.965Z,4.1
2019-02-14T17:57:18.422Z,3.6
2019-02-14T18:02:14.762Z,4.2
2019-02-14T18:07:10.841Z,4.1
2019-02-14T18:12:07.144Z,4.1
2019-02-14T18:17:03.490Z,3.5
2019-02-14T18:21:59.726Z,3
2019-02-14T18:26:55.924Z,4.1
2019-02-14T18:31:51.868Z,4.1
2019-02-14T18:36:48.138Z,4
2019-02-14T18:41:44.576Z,4.1
2019-02-14T18:46:40.944Z,4.1
2019-02-14T18:51:37.609Z,4.1
2019-02-14T18:56:33.965Z,4.1
2019-02-14T19:01:30.421Z,4.2
2019-02-14T19:06:26.467Z,4.1
2019-02-14T19:11:22.863Z,4.1
2019-02-14T19:16:18.883Z,4.1
2019-02-14T19:21:14.910Z,4.1
2019-02-14T19:26:11.444Z,4.1
2019-02-14T19:31:07.677Z,3.6
2019-02-14T19:36:03.589Z,4.1
2019-02-14T19:40:59.852Z,4.1
2019-02-14T19:45:56.234Z,4.2
2019-02-14T19:50:52.515Z,4.2
2019-02-14T19:55:48.846Z,4.2
2019-02-14T20:00:45.299Z,4.2
2019-02-14T20:05:41.460Z,4.1
2019-02-14T20:10:37.851Z,4.1
2019-02-14T20:15:36.957Z,3.1
2019-02-14T20:20:30.798Z,4.1
2019-02-14T20:25:27.317Z,4.1
2019-02-14T20:30:21.973Z,4.1
2019-02-14T20:35:18.216Z,4.1
2019-02-14T20:40:14.526Z,4.2
2019-02-14T20:45:10.541Z,4.3
2019-02-14T20:50:06.637Z,3.7
2019-02-14T20:55:02.939Z,4.2
2019-02-14T20:59:59.356Z,4.3
2019-02-14T21:04:55.725Z,4.3
2019-02-14T21:09:52.209Z,4.3
2019-02-14T21:14:48.787Z,4.3
2019-02-14T21:19:45.111Z,4.3
2019-02-14T21:24:41.655Z,4.3
2019-02-14T21:29:37.886Z,4.3
2019-02-14T21:34:34.321Z,4.3
2019-02-14T21:39:30.793Z,4.3
2019-02-14T21:44:27.008Z,4.2
2019-02-14T21:49:23.641Z,4.3
2019-02-14T21:54:19.811Z,4.3
2019-02-14T21:59:16.335Z,4.3
2019-02-14T22:04:12.580Z,4.3
2019-02-14T22:09:09.013Z,4.3
2019-02-14T22:14:05.322Z,4.3
2019-02-14T22:19:01.987Z,3.7
2019-02-14T22:23:58.450Z,4.3
2019-02-14T22:28:54.512Z,4.2
2019-02-14T22:33:50.670Z,4.2
2019-02-14T22:38:47.165Z,3.7
2019-02-14T22:43:43.450Z,4.2
2019-02-14T22:48:39.911Z,4.2
2019-02-14T22:53:36.252Z,4.2
2019-02-14T22:58:32.683Z,4.2
2019-02-14T23:03:29.625Z,4.3
2019-02-14T23:08:25.913Z,4.3
2019-02-14T23:13:22.184Z,4.3
2019-02-14T23:18:18.602Z,4.4
2019-02-14T23:23:14.920Z,4.4
2019-02-14T23:28:11.430Z,4.4
2019-02-14T23:33:08.035Z,3.9
2019-02-14T23:38:04.620Z,4.4
2019-02-14T23:43:04.543Z,3.8
2019-02-14T23:47:56.838Z,4.4
2019-02-14T23:52:53.116Z,4.4
2019-02-14T23:57:49.670Z,4.4
